Flight Track Log - Related Links

Times and Time Zones

All times are in EDT time to prevent confusion due to time zone crossing. See the SWA8500 flight status page for this flight to view local times or setup timezone preferences in your user account.

Time Position Orientation Groundspeed Altitude Reporting Facility
EDT Latitude Longitude Course Direction KTS MPH feet Rate Location/Type
Sat 12:42:24 PM 39.1500 -76.6500 142° Southeast 155 178 1,800  Level Potomac TRACON
Sat 12:43:24 PM 39.1000 -76.6000 142° Southeast 207 238 4,600 2,529 Climbing Potomac TRACON
Sat 12:44:25 PM 39.0500 -76.5500 142° Southeast 255 293 6,900 2,628 Climbing Potomac TRACON
Sat 12:45:25 PM 38.9833 -76.5500 180° South 283 326 9,900 2,750 Climbing Potomac TRACON
Sat 12:46:25 PM 38.9000 -76.5833 197° South 297 342 12,400 2,450 Climbing Potomac TRACON
Sat 12:47:25 PM 38.8167 -76.6000 189° South 338 389 14,800 2,452 Climbing Potomac TRACON
Sat 12:48:20 PM 38.7333 -76.6333 197° South 341 392 17,100 2,087 Climbing Potomac TRACON
Sat 12:49:20 PM 38.6333 -76.6500 187° South 365 420 18,800 1,390 Climbing Potomac TRACON
Sat 12:49:42 PM 38.5917 -76.6622 193° South 376 433 19,000 723 Climbing Washington Center
Sat 12:50:43 PM 38.4850 -76.6897 191° South 387 445 19,800 1,463 Climbing Washington Center
Sat 12:51:45 PM 38.3806 -76.7253 195° South 392 451 22,000 1,033 Climbing Washington Center
Sat 12:52:45 PM 38.2822 -76.7608 196° South 397 457 21,900 -51 Descending Washington Center
Sat 12:53:43 PM 38.1692 -76.8039 197° South 411 473 21,900  Level Washington Center
Sat 12:54:43 PM 38.0542 -76.8469 196° South 424 488 21,900  Level Washington Center
Sat 12:55:45 PM 37.9408 -76.8897 197° South 429 494 21,900  Level Washington Center
Sat 12:56:42 PM 37.8258 -76.9325 196° South 429 494 21,900  Level Washington Center
Sat 12:57:43 PM 37.7000 -76.9803 197° South 429 494 21,900  Level Washington Center
Sat 12:58:43 PM 37.5892 -77.0203 196° South 424 488 21,900  Level Washington Center
Sat 12:59:44 PM 37.4717 -77.0625 196° South 424 488 21,900  Level Washington Center
Sat 01:00:44 PM 37.3586 -77.1072 197° South 430 495 21,900  Level Washington Center
Sat 01:01:42 PM 37.2514 -77.1678 204° Southwest 430 495 21,900  Level Washington Center
Sat 01:02:43 PM 37.1589 -77.2336 210° Southwest 423 487 21,900  Level Washington Center
Sat 01:03:44 PM 37.0597 -77.3044 210° Southwest 423 487 21,900  Level Washington Center
Sat 01:04:45 PM 36.9564 -77.3828 211° Southwest 428 493 21,900  Level Washington Center
Sat 01:05:43 PM 36.8550 -77.4583 211° Southwest 428 493 21,900  Level Washington Center
Sat 01:06:44 PM 36.7558 -77.5311 210° Southwest 428 493 21,900  Level Washington Center
Sat 01:07:45 PM 36.6544 -77.6089 212° Southwest 433 498 21,900  Level Washington Center
Sat 01:08:43 PM 36.5531 -77.6836 211° Southwest 433 498 21,900 -403 Level Washington Center
Sat 01:09:44 PM 36.4678 -77.7794 222° Southwest 433 498 21,100 -2,033 Descending Washington Center
Sat 01:10:44 PM 36.3931 -77.8781 227° Southwest 415 478 17,800 -3,100 Descending Washington Center
Sat 01:11:44 PM 36.3203 -77.9739 227° Southwest 404 465 14,900 -2,932 Descending Washington Center
Sat 01:12:12 PM 36.2775 -78.0267 225° Southwest 371 427 13,500 -2,459 Descending Washington Center
Sat 01:12:45 PM 36.2494 -78.0644 227° Southwest 383 441 12,400 -2,444 Descending Washington Center
Sat 01:13:06 PM 36.2172 -78.1072 227° Southwest 341 392 11,300 -2,066 Descending Washington Center
Sat 01:13:46 PM 36.1831 -78.1475 224° Southwest 353 406 10,300 -1,418 Descending Washington Center
Sat 01:14:01 PM 36.1514 -78.1617 200° South 314 361 10,000 -947 Descending Washington Center
Sat 01:14:43 PM 36.1008 -78.1908 205° Southwest 309 356 9,400 -1,151 Descending Washington Center
Sat 01:15:14 PM 36.0647 -78.2156 209° Southwest 259 298 8,600 -1,377 Descending Washington Center
Sat 01:15:44 PM 36.0458 -78.2278 208° Southwest 274 315 8,000 -1,418 Descending Washington Center
Sat 01:16:09 PM 36.0119 -78.2472 205° Southwest 254 292 7,300 -1,672 Descending Washington Center
Sat 01:16:45 PM 35.9819 -78.2847 225° Southwest 262 302 6,300 -1,750 Descending Washington Center
Sat 01:17:21 PM 35.9456 -78.3167 215° Southwest 257 296 5,200 -1,700 Descending Washington Center
Sat 01:17:45 PM 35.9306 -78.3367 227° Southwest 262 302 4,600 -1,625 Descending Washington Center
Sat 01:18:09 PM 35.9047 -78.3742 230° Southwest 263 303 3,900 -724 Descending Washington Center
Sat 01:18:43 PM 35.8892 -78.4147 245° Southwest 262 302 3,900 109 Level Washington Center
Sat 01:19:04 PM 35.8761 -78.4375 235° Southwest 213 245 4,000 98 Climbing Washington Center
Sat 01:19:44 PM 35.8878 -78.4711 293° West 215 247 4,000  Level Washington Center
Sat 01:20:05 PM 35.8997 -78.4997 297° West 206 237 4,000 -600 Level Washington Center
Sat 01:20:44 PM 35.9178 -78.5286 308° West 195 224 3,400 -984 Descending Washington Center
Sat 01:21:06 PM 35.9314 -78.5600 298° West 205 236 3,000 -885 Descending Washington Center
Sat 01:21:45 PM 35.9456 -78.5861 304° West 195 224 2,500 -885 Descending Washington Center
Sat 01:22:07 PM 35.9575 -78.6097 302° West 186 214 2,100 -337 Descending Washington Center
Sat 01:23:14 PM 35.9597 -78.6764 272° West 177 204 2,000 -142 Descending Washington Center
Sat 01:24:14 PM 35.9294 -78.7214 230° Southwest 169 194 1,800 -417 Descending Washington Center
Sat 01:25:09 PM 35.9036 -78.7514 223° Southwest 128 147 1,200 -655 Descending Washington Center
Sat 01:27:00 PM 35.8776 -78.7875 North  Level Estimated
Sat 01:34:00 PM 35.8776 -78.7875 349° North  Level Estimated

Login

Don't have an account? Register now (free) for customized features, flight alerts, and more!